Time;durP1;ratioP1;P1;durP2;ratioP2;P2;SDS_P1;SDS_P2;PMS_P1;PMS_P2;Temp;Humidity;BMP_temperature;BMP_pressure;BME280_temperature;BME280_humidity;BME280_pressure;Samples;Min_cycle;Max_cycle;Signal;HPM_P1;HPM_P2
2023/01/19 00:01:35;;;;;;;2.23;0.93;;;;;;;13.99;63.60;98071.50;5112231;28;20426;-59
2023/01/19 00:04:02;;;;;;;4.73;0.93;;;;;;;14.04;63.64;98079.53;5112126;28;20235;-59
2023/01/19 00:06:30;;;;;;;5.70;2.03;;;;;;;14.03;63.72;98077.94;5112163;28;20204;-59
2023/01/19 00:08:57;;;;;;;3.10;1.20;;;;;;;13.94;64.61;98073.75;5112062;28;20264;-62
2023/01/19 00:11:25;;;;;;;8.20;0.93;;;;;;;13.95;64.57;98080.50;5111490;28;20208;-62
2023/01/19 00:13:52;;;;;;;1.40;1.13;;;;;;;13.84;65.40;98081.56;5111590;28;20224;-59
2023/01/19 00:16:21;;;;;;;6.77;1.80;;;;;;;13.88;65.00;98084.66;5111625;28;20205;-62
2023/01/19 00:18:50;;;;;;;4.90;1.07;;;;;;;13.72;66.53;98083.63;5111680;28;20293;-60
2023/01/19 00:21:17;;;;;;;1.60;1.13;;;;;;;13.69;66.78;98081.38;5111612;28;20236;-62
2023/01/19 00:23:46;;;;;;;1.50;0.57;;;;;;;13.73;66.38;98077.56;5111984;28;20767;-59
2023/01/19 00:26:15;;;;;;;5.17;1.10;;;;;;;13.59;67.15;98101.25;5111623;28;20202;-59
2023/01/19 00:28:43;;;;;;;1.97;1.40;;;;;;;13.72;66.85;98091.34;5111555;28;20255;-62
2023/01/19 00:31:10;;;;;;;2.53;1.03;;;;;;;13.69;67.43;98106.25;5111505;28;20318;-62
2023/01/19 00:33:37;;;;;;;3.03;0.67;;;;;;;13.73;67.50;98103.25;5111541;28;20235;-61
2023/01/19 00:36:05;;;;;;;3.50;0.60;;;;;;;13.65;67.42;98113.47;5111625;28;20623;-62
2023/01/19 00:38:31;;;;;;;1.63;0.97;;;;;;;13.61;67.64;98108.78;5111305;28;20233;-59
2023/01/19 00:40:58;;;;;;;1.90;1.33;;;;;;;13.52;68.80;98105.38;5111576;28;20199;-59
2023/01/19 00:43:24;;;;;;;2.23;1.07;;;;;;;13.54;68.81;98108.59;5111419;28;20625;-62
2023/01/19 00:45:52;;;;;;;3.60;1.80;;;;;;;13.47;69.30;98110.19;5111283;28;20280;-59
2023/01/19 00:48:19;;;;;;;2.63;1.60;;;;;;;13.35;69.43;98100.19;5111496;28;20211;-62
2023/01/19 00:50:47;;;;;;;2.80;0.73;;;;;;;13.12;70.56;98087.03;5111401;28;20210;-62
2023/01/19 00:53:15;;;;;;;4.63;1.37;;;;;;;13.11;70.92;98094.88;5111543;28;20671;-59
2023/01/19 00:55:41;;;;;;;6.77;1.97;;;;;;;12.98;71.87;98097.03;5111189;28;20200;-61
2023/01/19 00:58:08;;;;;;;1.73;1.03;;;;;;;13.03;71.96;98099.94;5111250;28;20238;-59
2023/01/19 01:00:35;;;;;;;5.20;1.07;;;;;;;12.79;74.02;98093.69;5111209;28;20288;-59
2023/01/19 01:03:04;;;;;;;1.53;0.83;;;;;;;12.73;74.92;98099.41;5111116;28;20651;-61
2023/01/19 01:05:30;;;;;;;9.47;3.33;;;;;;;12.79;75.70;98093.69;5111638;28;20225;-62
2023/01/19 01:07:57;;;;;;;3.77;1.33;;;;;;;12.65;77.38;98089.91;5110943;28;20201;-59
2023/01/19 01:10:27;;;;;;;3.07;1.77;;;;;;;12.96;76.72;98104.88;5110787;28;20343;-62
2023/01/19 01:12:55;;;;;;;1.53;1.43;;;;;;;12.96;77.29;98098.94;5110643;28;20194;-60
2023/01/19 01:15:22;;;;;;;0.70;0.70;;;;;;;13.03;77.54;98092.25;5110790;28;20225;-62
2023/01/19 01:17:51;;;;;;;4.43;1.07;;;;;;;13.09;77.90;98089.09;5110498;28;20221;-59
2023/01/19 01:20:27;;;;;;;0.37;0.37;;;;;;;13.10;78.21;98093.25;5110679;28;20217;-59
2023/01/19 01:22:55;;;;;;;0.27;0.27;;;;;;;12.99;79.38;98083.25;5110540;28;20220;-62
2023/01/19 01:25:24;;;;;;;2.23;0.47;;;;;;;13.00;80.55;98084.84;5110736;28;20222;-59
2023/01/19 01:27:51;;;;;;;4.70;1.37;;;;;;;12.90;81.84;98090.09;5110493;28;20203;-59
2023/01/19 01:30:18;;;;;;;3.13;1.37;;;;;;;12.90;82.92;98085.75;5110529;28;20250;-62
2023/01/19 01:32:45;;;;;;;0.60;0.60;;;;;;;13.05;83.00;98087.78;5110161;28;20230;-59
2023/01/19 01:35:13;;;;;;;2.60;0.97;;;;;;;13.08;83.25;98092.59;5110416;28;20237;-59
2023/01/19 01:37:41;;;;;;;3.50;1.13;;;;;;;13.17;83.09;98093.47;5110048;28;20271;-61
2023/01/19 01:40:11;;;;;;;2.43;1.17;;;;;;;13.32;82.64;98090.22;5110702;28;20226;-59
2023/01/19 01:42:39;;;;;;;1.70;1.47;;;;;;;13.36;82.08;98086.38;5110181;28;20193;-62
2023/01/19 01:45:26;;;;;;;1.53;0.60;;;;;;;13.29;82.81;98090.53;5110400;28;20252;-59
2023/01/19 01:47:55;;;;;;;2.73;0.90;;;;;;;13.20;83.07;98090.59;5110181;28;20198;-62
2023/01/19 01:50:25;;;;;;;3.00;1.67;;;;;;;13.18;83.79;98077.09;5110044;28;20223;-62
2023/01/19 01:52:58;;;;;;;4.50;0.97;;;;;;;13.17;84.18;98081.41;5109991;28;20194;-62
2023/01/19 01:55:26;;;;;;;6.80;1.50;;;;;;;13.32;83.35;98085.09;5109862;28;20230;-62
2023/01/19 01:57:57;;;;;;;3.07;1.77;;;;;;;13.34;82.93;98087.47;5109862;28;20229;-61
2023/01/19 02:00:25;;;;;;;0.60;0.40;;;;;;;13.43;82.83;98099.41;5110415;28;20279;-62
2023/01/19 02:02:51;;;;;;;0.67;0.67;;;;;;;13.33;83.33;98080.75;5109868;28;20225;-62
2023/01/19 02:05:22;;;;;;;5.90;1.30;;;;;;;13.39;83.63;98087.03;5109995;28;20710;-62
2023/01/19 02:13:30;;;;;;;2.27;1.37;;;;;;;13.49;83.28;98090.28;5109933;28;20643;-62
2023/01/19 02:16:00;;;;;;;2.17;1.30;;;;;;;13.31;84.08;98085.22;5109728;28;20209;-62
2023/01/19 02:18:28;;;;;;;1.20;0.83;;;;;;;13.46;84.51;98090.59;5109891;28;20303;-62
2023/01/19 02:21:04;;;;;;;0.27;0.27;;;;;;;13.48;84.25;98093.81;5109858;28;20198;-62
2023/01/19 02:23:40;;;;;;;9.73;1.43;;;;;;;13.48;84.52;98091.25;5109911;28;20226;-59
2023/01/19 02:26:09;;;;;;;6.43;1.07;;;;;;;13.44;85.20;98087.34;5109646;28;20201;-59
2023/01/19 02:28:40;;;;;;;1.43;1.23;;;;;;;13.35;85.87;98091.66;5109660;28;20232;-59
2023/01/19 02:31:07;;;;;;;1.77;1.13;;;;;;;13.30;85.84;98092.13;5109738;28;20206;-59
2023/01/19 02:33:34;;;;;;;1.13;1.03;;;;;;;13.43;85.56;98096.03;5109643;28;20230;-59
2023/01/19 02:36:01;;;;;;;1.30;0.97;;;;;;;13.39;85.66;98090.41;5111941;28;20211;-62
2023/01/19 02:38:29;;;;;;;1.07;0.80;;;;;;;13.44;85.98;98084.78;5113764;28;20263;-59
2023/01/19 02:41:00;;;;;;;0.87;0.87;;;;;;;13.39;85.82;98084.47;5113695;28;20198;-62
2023/01/19 02:43:29;;;;;;;4.03;1.47;;;;;;;13.33;86.92;98085.88;5113584;28;20222;-59
2023/01/19 02:45:57;;;;;;;1.67;1.03;;;;;;;13.37;86.10;98087.19;5113515;28;20222;-62
2023/01/19 02:48:24;;;;;;;0.57;0.57;;;;;;;13.36;86.43;98088.94;5113416;28;20658;-62
2023/01/19 02:50:54;;;;;;;0.63;0.63;;;;;;;13.33;86.47;98091.81;5113407;28;20211;-59
2023/01/19 02:53:42;;;;;;;2.50;1.80;;;;;;;13.36;85.65;98099.22;5113190;28;20845;-59
2023/01/19 02:56:27;;;;;;;4.20;1.10;;;;;;;13.19;87.07;98092.34;5113355;28;20199;-62
2023/01/19 02:59:01;;;;;;;4.50;0.87;;;;;;;13.27;87.00;98095.00;5113152;28;20237;-59
2023/01/19 03:01:40;;;;;;;0.83;0.80;;;;;;;13.33;86.06;98091.81;5113334;28;20203;-59
2023/01/19 03:04:13;;;;;;;2.30;0.80;;;;;;;13.39;86.58;98089.59;5113051;28;20232;-59
2023/01/19 03:06:47;;;;;;;2.37;1.57;;;;;;;13.41;86.36;98092.81;5113017;28;20205;-59
2023/01/19 03:09:21;;;;;;;4.83;1.30;;;;;;;13.33;87.10;98102.09;5113151;28;20218;-62
2023/01/19 03:11:55;;;;;;;0.93;0.93;;;;;;;13.34;86.71;98096.00;5112931;28;20213;-62
2023/01/19 03:14:25;;;;;;;0.83;0.77;;;;;;;13.39;86.37;98094.75;5112814;28;20222;-59
2023/01/19 03:16:56;;;;;;;1.50;1.10;;;;;;;13.36;86.22;98101.78;5112654;28;20753;-59
2023/01/19 03:19:27;;;;;;;0.87;0.87;;;;;;;13.34;86.74;98098.56;5112682;28;20229;-59
2023/01/19 03:21:57;;;;;;;3.93;0.90;;;;;;;13.18;87.53;98098.44;5112921;28;20289;-62
2023/01/19 03:24:28;;;;;;;5.77;1.50;;;;;;;13.27;87.57;98100.13;5113078;28;20231;-59
2023/01/19 03:27:01;;;;;;;6.03;1.03;;;;;;;13.16;87.23;98090.09;5112574;28;20567;-62
2023/01/19 03:29:33;;;;;;;4.07;1.30;;;;;;;13.04;88.00;98106.69;5112889;28;20218;-59
2023/01/19 03:32:06;;;;;;;3.23;1.13;;;;;;;13.18;87.61;98105.31;5112736;28;20673;-62
2023/01/19 03:34:34;;;;;;;5.10;1.37;;;;;;;13.05;88.32;98113.44;5113100;28;20236;-59
2023/01/19 03:37:04;;;;;;;5.17;1.63;;;;;;;12.94;89.88;98114.47;5112597;28;20198;-59
2023/01/19 03:39:31;;;;;;;1.17;1.07;;;;;;;12.98;89.90;98113.22;5112718;28;20255;-59
2023/01/19 03:42:05;;;;;;;3.53;1.63;;;;;;;13.09;89.35;98109.63;5112410;28;20677;-59
2023/01/19 03:44:34;;;;;;;3.87;1.87;;;;;;;12.82;90.47;98095.94;5112284;28;20728;-59
2023/01/19 03:47:02;;;;;;;1.50;0.87;;;;;;;12.69;91.95;98087.84;5111172;28;20613;-62
2023/01/19 03:49:30;;;;;;;4.13;1.10;;;;;;;12.88;90.23;98100.47;5112410;28;20392;-62
2023/01/19 03:51:59;;;;;;;4.83;1.33;;;;;;;12.91;90.16;98094.25;5112291;28;20193;-59
2023/01/19 03:54:26;;;;;;;1.57;1.23;;;;;;;12.82;89.81;98097.72;5112416;28;20214;-59
2023/01/19 03:56:53;;;;;;;1.97;1.20;;;;;;;13.01;88.44;98101.88;5112274;28;20209;-59
2023/01/19 03:59:21;;;;;;;2.30;1.30;;;;;;;12.95;88.51;98092.22;5112225;28;20233;-61
2023/01/19 04:01:49;;;;;;;4.03;1.20;;;;;;;12.96;88.20;98093.81;5111898;28;20201;-62
2023/01/19 04:04:16;;;;;;;1.07;1.03;;;;;;;12.93;88.21;98094.13;5112021;28;20222;-62
2023/01/19 04:06:43;;;;;;;1.67;0.90;;;;;;;12.97;87.80;98092.84;5112127;28;20210;-59
2023/01/19 04:09:10;;;;;;;3.50;1.33;;;;;;;12.99;86.63;98088.38;5111795;28;20213;-59
2023/01/19 04:11:36;;;;;;;5.63;1.00;;;;;;;13.06;85.83;98089.38;5112073;28;20207;-62
2023/01/19 04:14:04;;;;;;;1.13;1.03;;;;;;;13.00;86.01;98095.09;5112081;27;20232;-62
2023/01/19 04:16:32;;;;;;;2.23;0.93;;;;;;;13.07;84.93;98085.88;5111742;28;20208;-59
2023/01/19 04:18:59;;;;;;;4.30;1.17;;;;;;;13.04;85.00;98094.66;5111864;28;20706;-62
2023/01/19 04:21:26;;;;;;;2.87;2.17;;;;;;;12.99;85.22;98094.31;5111618;28;20578;-59
2023/01/19 04:23:53;;;;;;;0.43;0.40;;;;;;;12.98;85.03;98091.91;5111823;28;20736;-59
2023/01/19 04:26:19;;;;;;;3.73;1.50;;;;;;;12.98;85.24;98097.03;5111715;28;20287;-59
2023/01/19 04:28:46;;;;;;;1.17;0.90;;;;;;;13.14;83.90;98094.56;5111284;28;20581;-62
2023/01/19 04:31:13;;;;;;;1.53;1.27;;;;;;;12.95;84.48;98098.16;5111746;28;20662;-59
2023/01/19 04:33:41;;;;;;;3.63;1.10;;;;;;;13.00;84.25;98105.38;5111442;28;20222;-62
2023/01/19 04:36:09;;;;;;;1.77;0.80;;;;;;;13.07;83.76;98098.69;5111457;28;20197;-62
2023/01/19 04:38:37;;;;;;;3.27;1.13;;;;;;;13.03;83.42;98113.59;5111087;28;20248;-62
2023/01/19 04:41:04;;;;;;;2.77;1.07;;;;;;;13.00;83.23;98113.91;5111428;28;20199;-59
2023/01/19 04:43:31;;;;;;;2.27;1.17;;;;;;;12.96;83.25;98114.34;5111092;28;20590;-59
2023/01/19 04:45:58;;;;;;;4.17;1.20;;;;;;;13.04;82.27;98116.97;5111304;28;20304;-59
2023/01/19 04:48:25;;;;;;;2.50;1.30;;;;;;;12.97;82.66;98115.94;5111246;28;20202;-59
2023/01/19 04:50:53;;;;;;;4.37;1.87;;;;;;;13.04;82.42;98122.09;5111002;28;20671;-60
2023/01/19 04:53:20;;;;;;;2.00;1.00;;;;;;;13.11;81.89;98123.09;5110780;28;20298;-62
2023/01/19 04:55:46;;;;;;;1.93;1.57;;;;;;;12.97;83.12;98128.75;5111011;28;20213;-59
2023/01/19 04:58:14;;;;;;;1.50;0.77;;;;;;;12.86;83.42;98130.63;5110495;28;20240;-59
2023/01/19 05:00:41;;;;;;;3.87;1.30;;;;;;;12.93;82.71;98130.03;5110985;28;20661;-59
2023/01/19 05:03:08;;;;;;;1.73;1.03;;;;;;;12.78;83.94;98137.47;5110704;28;20209;-62
2023/01/19 05:05:35;;;;;;;0.67;0.50;;;;;;;12.77;83.86;98136.66;5110860;28;20208;-59
2023/01/19 05:08:03;;;;;;;5.87;1.87;;;;;;;12.65;83.86;98143.78;5110937;28;20213;-62
2023/01/19 05:10:30;;;;;;;5.03;1.40;;;;;;;12.57;84.61;98145.47;5110720;28;20612;-62
2023/01/19 05:12:57;;;;;;;3.23;1.93;;;;;;;12.52;84.65;98143.31;5110692;28;20193;-59
2023/01/19 05:15:24;;;;;;;2.27;1.03;;;;;;;12.48;84.51;98139.44;5110736;28;20237;-59
2023/01/19 05:17:51;;;;;;;2.83;1.70;;;;;;;12.46;84.64;98154.97;5110546;28;20209;-59
2023/01/19 05:20:18;;;;;;;3.03;1.50;;;;;;;12.43;84.25;98160.38;5110480;28;20236;-59
2023/01/19 05:22:49;;;;;;;4.97;1.70;;;;;;;12.31;84.55;98160.75;5110717;28;20201;-62
2023/01/19 05:25:18;;;;;;;2.83;1.20;;;;;;;12.26;84.38;98158.59;5110499;28;20221;-60
2023/01/19 05:27:45;;;;;;;1.33;0.90;;;;;;;12.38;83.63;98159.19;5110559;28;20197;-59
2023/01/19 05:30:13;;;;;;;2.10;1.10;;;;;;;12.40;83.42;98160.66;5110416;28;20225;-59
2023/01/19 05:32:40;;;;;;;5.60;1.67;;;;;;;12.32;83.56;98167.47;5110333;28;20204;-59
2023/01/19 05:35:08;;;;;;;3.90;0.70;;;;;;;12.34;83.22;98165.59;5110369;28;20635;-62
2023/01/19 05:37:35;;;;;;;3.00;0.70;;;;;;;12.24;83.90;98170.75;5110249;28;20204;-59
2023/01/19 05:40:02;;;;;;;2.60;1.17;;;;;;;12.50;82.21;98175.19;5110196;28;20229;-59
2023/01/19 05:42:30;;;;;;;2.67;1.20;;;;;;;12.36;82.78;98176.47;5110313;28;20201;-62
2023/01/19 05:44:58;;;;;;;2.23;1.30;;;;;;;12.32;82.95;98178.53;5110100;28;20319;-62
2023/01/19 05:47:25;;;;;;;2.60;0.83;;;;;;;12.29;83.50;98181.38;5110021;28;20454;-62
2023/01/19 05:49:52;;;;;;;5.80;1.60;;;;;;;12.15;83.95;98190.34;5110309;28;20712;-59
2023/01/19 05:52:18;;;;;;;2.00;1.40;;;;;;;12.17;83.84;98195.34;5110005;28;20209;-59
2023/01/19 05:54:47;;;;;;;7.73;1.60;;;;;;;12.05;85.15;98206.72;5110525;28;20217;-62
2023/01/19 05:57:14;;;;;;;2.23;1.77;;;;;;;11.95;85.11;98204.19;5109939;28;20236;-62
2023/01/19 05:59:42;;;;;;;3.40;1.63;;;;;;;12.02;84.47;98196.78;5110098;28;20708;-59
2023/01/19 06:02:09;;;;;;;2.33;1.47;;;;;;;12.13;84.17;98199.13;5110192;28;20213;-59
2023/01/19 06:04:36;;;;;;;4.33;2.10;;;;;;;12.10;83.91;98199.41;5109910;28;20229;-59
2023/01/19 06:07:02;;;;;;;3.97;1.83;;;;;;;12.10;84.14;98195.13;5109929;28;20227;-59
2023/01/19 06:09:29;;;;;;;6.93;1.13;;;;;;;11.99;84.15;98196.09;5109371;28;20221;-62
2023/01/19 06:11:58;;;;;;;1.37;0.93;;;;;;;12.15;83.60;98197.22;5109966;28;20208;-62
2023/01/19 06:14:25;;;;;;;3.30;1.50;;;;;;;12.30;82.41;98184.75;5109813;28;20224;-62
2023/01/19 06:16:53;;;;;;;1.10;1.00;;;;;;;12.27;82.36;98180.72;5109660;28;20230;-61
2023/01/19 06:19:20;;;;;;;7.63;1.77;;;;;;;12.12;82.40;98192.41;5110063;28;20229;-59
2023/01/19 06:21:51;;;;;;;3.30;1.07;;;;;;;12.14;82.93;98195.63;5110062;28;20200;-62
2023/01/19 06:24:18;;;;;;;2.97;1.13;;;;;;;12.18;82.41;98184.13;5110142;28;20256;-61
2023/01/19 06:26:44;;;;;;;5.93;1.60;;;;;;;12.39;81.34;98179.56;5109817;28;20193;-59
2023/01/19 06:29:12;;;;;;;1.37;1.10;;;;;;;12.50;80.23;98180.31;5109899;28;20225;-59
2023/01/19 06:31:39;;;;;;;1.07;0.93;;;;;;;12.66;79.17;98170.22;5109808;28;20287;-59
2023/01/19 06:34:07;;;;;;;1.30;0.87;;;;;;;12.72;77.59;98174.75;5109757;28;20217;-59
2023/01/19 06:36:34;;;;;;;2.90;1.63;;;;;;;13.15;74.83;98175.75;5109469;28;20677;-59
2023/01/19 06:39:04;;;;;;;1.67;1.17;;;;;;;13.48;73.25;98179.34;5109341;28;20240;-59
2023/01/19 06:41:31;;;;;;;2.03;0.57;;;;;;;13.38;73.65;98180.41;5109627;28;20701;-59
2023/01/19 06:43:58;;;;;;;2.53;1.17;;;;;;;13.43;73.53;98181.56;5109385;28;20592;-60
2023/01/19 06:46:26;;;;;;;0.90;0.80;;;;;;;13.49;72.03;98188.66;5109452;28;20194;-59
2023/01/19 06:48:53;;;;;;;3.40;0.90;;;;;;;13.70;71.53;98190.06;5109269;28;20738;-59
2023/01/19 06:51:22;;;;;;;2.87;1.40;;;;;;;13.74;71.35;98187.03;5109608;28;20232;-59
2023/01/19 06:53:48;;;;;;;7.93;1.40;;;;;;;13.92;70.60;98183.59;5109471;28;20227;-62
2023/01/19 06:56:15;;;;;;;3.97;1.20;;;;;;;13.87;69.96;98188.38;5109260;28;20197;-59
2023/01/19 06:58:42;;;;;;;1.17;0.77;;;;;;;14.00;70.10;98189.56;5109252;28;20237;-59
2023/01/19 07:01:09;;;;;;;5.40;1.03;;;;;;;14.01;69.95;98188.59;5109370;28;20216;-62
2023/01/19 07:03:37;;;;;;;4.63;1.10;;;;;;;14.14;69.52;98190.75;5109392;28;20223;-62
2023/01/19 07:06:06;;;;;;;2.77;1.30;;;;;;;14.30;69.45;98191.75;5109455;28;20269;-60
2023/01/19 07:08:35;;;;;;;0.80;0.80;;;;;;;14.33;68.75;98194.03;5109577;28;20219;-63
2023/01/19 07:11:05;;;;;;;4.10;1.37;;;;;;;14.38;68.52;98200.31;5109471;28;20208;-63
2023/01/19 07:13:32;;;;;;;3.77;1.23;;;;;;;14.45;68.12;98180.69;5109365;28;20596;-63
2023/01/19 07:15:59;;;;;;;4.33;0.77;;;;;;;14.67;67.71;98194.78;5109556;28;20197;-60
2023/01/19 07:18:26;;;;;;;2.83;1.23;;;;;;;14.68;67.78;98193.78;5108910;28;20197;-60
2023/01/19 07:20:53;;;;;;;1.53;0.93;;;;;;;14.88;66.80;98186.56;5109404;28;20229;-60
2023/01/19 07:23:19;;;;;;;5.73;1.67;;;;;;;14.94;66.62;98188.50;5112751;28;20296;-60
2023/01/19 07:25:48;;;;;;;1.73;1.13;;;;;;;15.10;66.61;98195.44;5113008;28;20193;-60
2023/01/19 07:28:15;;;;;;;3.23;1.30;;;;;;;15.21;65.74;98203.78;5112670;28;20205;-60
2023/01/19 07:30:42;;;;;;;2.93;1.10;;;;;;;15.26;65.66;98199.75;5113103;28;20202;-63
2023/01/19 07:33:09;;;;;;;3.40;1.40;;;;;;;15.42;65.78;98198.97;5112678;28;20201;-59
2023/01/19 07:35:36;;;;;;;3.30;1.33;;;;;;;15.37;64.92;98185.75;5114012;28;20683;-60
2023/01/19 07:38:03;;;;;;;2.27;1.37;;;;;;;15.41;65.37;98197.34;5113465;28;20205;-60
2023/01/19 07:40:30;;;;;;;3.43;0.77;;;;;;;15.46;64.55;98194.28;5112548;28;20229;-63
2023/01/19 07:42:58;;;;;;;2.27;1.23;;;;;;;15.44;65.14;98197.00;5112365;28;20201;-60
2023/01/19 07:45:26;;;;;;;2.90;1.30;;;;;;;15.58;65.12;98198.13;5112820;28;20874;-63
2023/01/19 07:47:53;;;;;;;2.27;1.37;;;;;;;15.45;65.25;98193.47;5112194;28;20559;-60
2023/01/19 07:50:23;;;;;;;4.77;1.00;;;;;;;15.49;65.71;98205.06;5112430;28;20218;-60
2023/01/19 07:52:52;;;;;;;4.63;1.37;;;;;;;15.72;64.68;98219.88;5112354;28;20256;-63
2023/01/19 07:55:19;;;;;;;2.30;0.63;;;;;;;15.82;63.65;98199.84;5112139;27;20736;-63
2023/01/19 07:57:49;;;;;;;2.47;1.20;;;;;;;15.87;64.25;98192.41;5112007;28;20680;-60
2023/01/19 08:00:20;;;;;;;5.20;2.03;;;;;;;16.03;64.03;98217.34;5112127;28;20236;-64
2023/01/19 08:02:48;;;;;;;7.63;1.23;;;;;;;16.09;63.66;98211.53;5112049;28;20294;-63
2023/01/19 08:05:16;;;;;;;2.63;0.93;;;;;;;16.10;64.74;98209.75;5112009;28;20222;-60
2023/01/19 08:07:44;;;;;;;2.73;1.07;;;;;;;16.20;63.01;98213.75;5111869;28;20229;-60
2023/01/19 08:10:11;;;;;;;1.20;0.70;;;;;;;16.44;62.97;98210.22;5111941;28;20303;-63
2023/01/19 08:12:39;;;;;;;3.87;1.20;;;;;;;16.16;63.93;98211.66;5112111;28;20206;-60
2023/01/19 08:15:07;;;;;;;3.00;1.57;;;;;;;16.52;63.08;98202.44;5111906;28;20238;-60
2023/01/19 08:17:35;;;;;;;1.90;0.80;;;;;;;16.58;62.08;98202.72;5111787;28;20197;-60
2023/01/19 08:20:02;;;;;;;0.83;0.80;;;;;;;16.67;62.47;98204.31;5111835;28;20250;-60
2023/01/19 08:22:29;;;;;;;3.80;1.73;;;;;;;16.63;61.97;98197.84;5111796;28;20204;-63
2023/01/19 08:24:56;;;;;;;1.93;1.10;;;;;;;16.71;62.39;98206.34;5111506;28;20252;-60
2023/01/19 08:27:23;;;;;;;4.83;2.13;;;;;;;16.82;61.61;98202.59;5111924;28;20711;-63
2023/01/19 08:29:49;;;;;;;3.27;1.30;;;;;;;17.09;60.92;98214.19;5111842;28;20223;-64
2023/01/19 08:32:16;;;;;;;4.57;1.10;;;;;;;17.21;61.19;98211.97;5111273;28;20617;-64
2023/01/19 08:34:44;;;;;;;7.20;1.53;;;;;;;17.31;60.11;98217.72;5111102;28;20273;-60
2023/01/19 08:37:11;;;;;;;3.80;1.33;;;;;;;17.38;60.06;98210.84;5111551;28;20204;-60
2023/01/19 08:39:38;;;;;;;4.23;1.43;;;;;;;17.28;61.56;98223.25;5111360;28;20238;-64
2023/01/19 08:42:05;;;;;;;6.07;1.07;;;;;;;17.15;61.04;98218.66;5111470;28;20326;-61
2023/01/19 08:44:32;;;;;;;3.03;1.40;;;;;;;17.11;61.65;98221.75;5111417;28;20221;-60
2023/01/19 08:47:00;;;;;;;5.03;1.33;;;;;;;17.30;60.55;98225.63;5111298;28;20211;-60
2023/01/19 08:49:26;;;;;;;1.87;1.10;;;;;;;17.53;60.09;98226.38;5111079;28;20225;-64
2023/01/19 08:51:55;;;;;;;4.83;1.20;;;;;;;17.82;60.07;98223.03;5111141;28;20204;-64
2023/01/19 08:54:23;;;;;;;4.27;1.63;;;;;;;17.64;59.74;98225.16;5111061;28;20228;-60
2023/01/19 08:56:49;;;;;;;6.17;2.00;;;;;;;17.57;58.75;98227.66;5110909;28;20223;-64
2023/01/19 08:59:16;;;;;;;4.73;1.30;;;;;;;17.54;59.16;98222.00;5111232;28;20219;-64
2023/01/19 09:01:43;;;;;;;5.40;1.60;;;;;;;17.94;59.13;98235.53;5110969;28;20662;-61
2023/01/19 09:04:10;;;;;;;2.13;1.20;;;;;;;18.06;58.66;98231.50;5111157;28;20214;-64
2023/01/19 09:06:37;;;;;;;6.77;1.83;;;;;;;18.03;58.15;98244.81;5110932;28;20191;-64
2023/01/19 09:09:05;;;;;;;4.47;1.10;;;;;;;18.03;58.49;98232.66;5110620;28;20604;-64
2023/01/19 09:11:33;;;;;;;6.63;1.60;;;;;;;18.08;57.56;98239.91;5110999;28;20199;-64
2023/01/19 09:14:00;;;;;;;5.93;1.80;;;;;;;18.06;57.14;98234.09;5110473;28;20221;-61
2023/01/19 09:16:28;;;;;;;2.43;1.20;;;;;;;17.95;56.33;98225.03;5111189;28;20191;-61
2023/01/19 09:18:55;;;;;;;4.53;1.47;;;;;;;18.16;57.04;98236.44;5110521;28;20226;-63
2023/01/19 09:21:22;;;;;;;1.90;0.87;;;;;;;18.27;57.43;98223.84;5110611;28;20410;-60
2023/01/19 09:23:49;;;;;;;1.30;0.90;;;;;;;18.12;56.51;98230.00;5110676;28;20218;-61
2023/01/19 09:26:17;;;;;;;3.07;1.37;;;;;;;18.32;56.78;98226.69;5110528;28;20745;-64
2023/01/19 09:28:44;;;;;;;7.13;1.90;;;;;;;18.38;55.96;98226.91;5110602;28;20272;-61
2023/01/19 09:31:10;;;;;;;4.00;1.03;;;;;;;18.30;56.77;98228.66;5110362;28;20698;-60
2023/01/19 09:33:37;;;;;;;1.27;1.00;;;;;;;18.54;56.79;98218.94;5110159;28;20219;-60
2023/01/19 09:36:04;;;;;;;3.77;2.00;;;;;;;18.94;55.55;98214.19;5110305;28;20198;-61
2023/01/19 09:38:31;;;;;;;4.53;2.23;;;;;;;18.73;54.99;98214.94;5110360;28;20697;-61
2023/01/19 09:40:59;;;;;;;6.27;1.70;;;;;;;19.24;54.31;98209.66;5110304;28;20235;-64
2023/01/19 09:43:41;;;;;;;4.53;1.30;;;;;;;19.59;51.25;98217.47;5110458;28;20233;-61
2023/01/19 09:46:14;;;;;;;5.70;1.63;;;;;;;19.16;53.17;98202.00;5109593;28;20206;-63
2023/01/19 09:48:46;;;;;;;1.23;1.10;;;;;;;19.16;52.97;98202.81;5110256;28;20222;-60
2023/01/19 09:51:17;;;;;;;2.63;1.03;;;;;;;19.61;52.14;98205.94;5110221;28;20210;-61
2023/01/19 09:53:52;;;;;;;5.13;1.60;;;;;;;19.67;49.81;98189.63;5110168;28;20214;-64
2023/01/19 09:56:20;;;;;;;2.53;1.10;;;;;;;19.63;50.51;98192.75;5110135;28;20204;-63
2023/01/19 09:58:50;;;;;;;3.27;1.20;;;;;;;19.49;49.47;98191.91;5110101;28;20214;-61
2023/01/19 10:01:31;;;;;;;5.70;1.93;;;;;;;19.75;48.04;98195.66;5110077;28;20240;-61
2023/01/19 10:04:27;;;;;;;2.60;1.60;;;;;;;19.77;48.84;98188.47;5110213;28;20608;-63
2023/01/19 10:07:03;;;;;;;3.13;1.60;;;;;;;19.97;47.59;98183.41;5103232;28;20476;-63
2023/01/19 10:09:36;;;;;;;1.70;0.93;;;;;;;19.96;48.96;98171.41;5109943;28;20218;-61
2023/01/19 10:12:11;;;;;;;4.83;1.23;;;;;;;20.30;47.68;98173.13;5110208;28;20192;-64
2023/01/19 10:14:44;;;;;;;2.50;1.43;;;;;;;20.39;47.20;98166.78;5109871;28;20231;-63
2023/01/19 10:17:22;;;;;;;4.10;1.30;;;;;;;20.34;46.69;98164.75;5110073;28;20200;-61
2023/01/19 10:19:53;;;;;;;11.17;1.73;;;;;;;20.84;46.78;98154.06;5109696;28;20220;-63
2023/01/19 10:22:22;;;;;;;3.77;0.87;;;;;;;20.55;46.77;98156.03;5110293;28;20223;-63
2023/01/19 10:24:53;;;;;;;2.63;1.47;;;;;;;20.12;45.75;98151.09;5109764;28;20210;-61
2023/01/19 10:27:24;;;;;;;5.93;2.37;;;;;;;20.29;45.83;98155.94;5109696;28;20615;-61
2023/01/19 10:29:52;;;;;;;5.03;1.37;;;;;;;20.77;45.08;98155.88;5109859;28;20215;-61
2023/01/19 10:32:22;;;;;;;3.57;1.17;;;;;;;20.60;44.96;98144.28;5109686;28;20199;-63
2023/01/19 10:34:49;;;;;;;4.03;1.47;;;;;;;20.24;47.00;98147.94;5109416;28;20225;-63
2023/01/19 10:37:29;;;;;;;5.33;1.10;;;;;;;20.44;46.35;98138.41;5109990;28;20204;-63
2023/01/19 10:40:01;;;;;;;12.13;1.30;;;;;;;20.85;45.57;98144.47;5109737;28;20286;-61
2023/01/19 10:42:30;;;;;;;4.57;1.17;;;;;;;21.40;43.18;98143.25;5109855;28;20218;-64
2023/01/19 10:44:58;;;;;;;9.87;1.83;;;;;;;21.16;43.66;98151.66;5109808;28;20224;-64
2023/01/19 10:47:33;;;;;;;3.87;1.07;;;;;;;21.16;43.73;98142.06;5109462;28;20458;-63
2023/01/19 10:50:07;;;;;;;4.33;1.10;;;;;;;20.47;44.68;98138.00;5109575;28;20738;-63
2023/01/19 10:52:38;;;;;;;2.97;1.30;;;;;;;20.66;44.96;98136.47;5109877;28;20206;-63
2023/01/19 10:55:07;;;;;;;3.47;1.60;;;;;;;20.52;44.75;98137.44;5109613;28;20253;-63
2023/01/19 10:57:37;;;;;;;5.37;2.00;;;;;;;21.24;45.49;98131.44;5112888;28;20202;-61
2023/01/19 11:00:14;;;;;;;5.30;1.43;;;;;;;21.23;42.98;98126.44;5113356;28;20236;-64
2023/01/19 11:02:50;;;;;;;2.60;1.40;;;;;;;21.47;42.88;98123.22;5113288;28;20193;-63
2023/01/19 11:05:26;;;;;;;8.63;1.30;;;;;;;21.53;43.35;98126.81;5113239;28;20224;-63
2023/01/19 11:07:53;;;;;;;6.80;1.20;;;;;;;21.62;41.50;98128.19;5113186;28;20193;-64
2023/01/19 11:10:23;;;;;;;7.43;1.77;;;;;;;21.48;42.95;98130.03;5113111;28;20235;-61
2023/01/19 11:13:02;;;;;;;2.47;1.17;;;;;;;21.09;40.95;98124.84;5113138;28;20199;-61
2023/01/19 11:15:34;;;;;;;6.00;1.50;;;;;;;21.25;40.52;98116.66;5113460;28;20232;-63
2023/01/19 11:18:03;;;;;;;7.70;1.60;;;;;;;20.98;40.91;98114.09;5113119;28;20191;-63
2023/01/19 11:20:34;;;;;;;6.73;1.67;;;;;;;21.03;42.17;98111.69;5113106;27;20502;-64
2023/01/19 11:23:06;;;;;;;4.63;1.30;;;;;;;20.64;40.84;98101.31;5112972;28;20202;-61
2023/01/19 11:25:35;;;;;;;4.97;1.73;;;;;;;21.07;40.28;98111.28;5113210;28;20684;-61
2023/01/19 11:28:03;;;;;;;0.67;0.57;;;;;;;21.21;39.30;98105.84;5113044;28;20220;-61
2023/01/19 11:30:32;;;;;;;3.63;1.07;;;;;;;21.20;38.98;98106.06;5113006;28;20246;-61
2023/01/19 11:32:58;;;;;;;3.33;1.50;;;;;;;21.18;38.31;98102.88;5112802;28;20192;-63
2023/01/19 11:35:33;;;;;;;2.53;1.07;;;;;;;20.89;38.70;98094.50;5112913;28;20699;-61
2023/01/19 11:38:24;;;;;;;4.63;0.93;;;;;;;20.99;38.87;98112.28;5112964;28;20214;-63
2023/01/19 11:40:54;;;;;;;1.63;1.13;;;;;;;20.89;38.81;98110.09;5108931;28;20253;-61
2023/01/19 11:43:23;;;;;;;7.97;1.03;;;;;;;20.80;38.46;98100.91;5112330;28;20704;-65
2023/01/19 11:45:51;;;;;;;2.37;0.90;;;;;;;20.53;38.63;98087.91;5112718;28;20239;-60
2023/01/19 11:48:25;;;;;;;5.30;1.33;;;;;;;20.56;38.97;98084.09;5112296;28;20199;-60